createdAt,value
2022-09-06T00:01:46.993Z,100280.16
2022-09-06T00:04:16.408Z,100328.03
2022-09-06T00:06:47.050Z,100329.56
2022-09-06T00:09:16.327Z,100323.25
2022-09-06T00:11:45.526Z,100255.34
2022-09-06T00:14:14.699Z,100324.41
2022-09-06T00:16:43.904Z,100322.94
2022-09-06T00:19:13.182Z,100328.66
2022-09-06T00:21:43.501Z,100334.81
2022-09-06T00:24:14.117Z,100330.78
2022-09-06T00:26:43.308Z,100335.28
2022-09-06T00:29:12.565Z,100346.84
2022-09-06T00:31:41.866Z,100256.34
2022-09-06T00:34:11.076Z,100329.94
2022-09-06T00:36:40.633Z,100321.91
2022-09-06T00:39:11.271Z,100331.53
2022-09-06T00:41:42.135Z,100329.16
2022-09-06T00:44:11.496Z,100334.78
2022-09-06T00:46:45.390Z,100282.06
2022-09-06T00:49:24.364Z,100322.81
2022-09-06T00:51:57.770Z,100295.72
2022-09-06T00:54:27.629Z,100333.72
2022-09-06T00:56:59.312Z,100295.09
2022-09-06T00:59:30.966Z,100292.03
2022-09-06T01:02:00.807Z,100297.84
2022-09-06T01:04:30.956Z,100302.63
2022-09-06T01:07:13.922Z,100308.16
2022-09-06T01:10:06.217Z,100314.44
2022-09-06T01:12:51.181Z,100324.41
2022-09-06T01:15:32.623Z,100328.03
2022-09-06T01:18:23.870Z,100319.31
2022-09-06T01:21:15.741Z,100319.69
2022-09-06T01:24:22.015Z,100324.41
2022-09-06T01:27:53.911Z,100321.28
2022-09-06T01:30:25.901Z,100320.72
2022-09-06T01:33:04.124Z,100323.91
2022-09-06T01:35:40.064Z,100315.88
2022-09-06T01:38:10.835Z,100309.13
2022-09-06T01:40:40.248Z,100315.50
2022-09-06T01:43:13.922Z,100319.44
2022-09-06T01:46:00.595Z,100321.03
2022-09-06T01:48:52.516Z,100324.66
2022-09-06T01:51:31.894Z,100321.09
2022-09-06T01:54:20.443Z,100327.84
2022-09-06T01:57:00.786Z,100330.28
2022-09-06T01:59:46.545Z,100320.06
2022-09-06T02:02:26.232Z,100318.50
2022-09-06T02:05:02.207Z,100327.97
2022-09-06T02:07:34.411Z,100326.94
2022-09-06T02:10:11.177Z,100311.00
2022-09-06T02:12:44.901Z,100330.59
2022-09-06T02:15:21.027Z,100311.50
2022-09-06T02:17:58.628Z,100332.25
2022-09-06T02:20:32.990Z,100313.94
2022-09-06T02:23:08.537Z,100314.06
2022-09-06T02:25:43.392Z,100310.13
2022-09-06T02:28:14.442Z,100293.72
2022-09-06T02:30:50.393Z,100325.53
2022-09-06T02:33:25.982Z,100323.09
2022-09-06T02:35:56.672Z,100317.94
2022-09-06T02:38:28.216Z,100320.38
2022-09-06T02:40:58.105Z,100310.56
2022-09-06T02:43:27.330Z,100315.66
2022-09-06T02:45:56.549Z,100320.00
2022-09-06T02:48:27.523Z,100308.91
2022-09-06T02:50:56.989Z,100297.75
2022-09-06T02:53:27.013Z,100287.31
2022-09-06T02:55:57.274Z,100307.22
2022-09-06T02:58:26.597Z,100307.97
2022-09-06T03:00:56.135Z,100302.75
2022-09-06T03:03:27.510Z,100275.34
2022-09-06T03:05:57.171Z,100274.50
2022-09-06T03:08:29.391Z,100285.56
2022-09-06T03:10:58.875Z,100278.06
2022-09-06T03:13:28.362Z,100298.72
2022-09-06T03:16:00.029Z,100285.25
2022-09-06T03:18:32.738Z,100295.50
2022-09-06T03:21:02.237Z,100284.78
2022-09-06T03:23:31.895Z,100265.31
2022-09-06T03:26:01.111Z,100263.38
2022-09-06T03:28:30.356Z,100277.31
2022-09-06T03:31:00.392Z,100277.03
2022-09-06T03:33:31.214Z,100279.72
2022-09-06T03:36:04.109Z,100267.50
2022-09-06T03:38:33.966Z,100273.03
2022-09-06T03:41:03.501Z,100269.03
2022-09-06T03:43:32.977Z,100249.50
2022-09-06T03:46:02.656Z,100262.19
2022-09-06T03:48:33.404Z,100270.06
2022-09-06T03:51:02.816Z,100275.59
2022-09-06T03:53:32.180Z,100279.06
2022-09-06T03:56:01.578Z,100268.88
2022-09-06T03:58:33.601Z,100267.88
2022-09-06T04:01:06.116Z,100283.91
2022-09-06T04:03:37.082Z,100273.47
2022-09-06T04:06:07.944Z,100276.25
2022-09-06T04:08:37.688Z,100264.63
2022-09-06T04:11:07.862Z,100265.06
2022-09-06T04:13:38.136Z,100258.69
2022-09-06T04:16:08.199Z,100258.09
2022-09-06T04:18:39.119Z,100264.13
2022-09-06T04:21:08.721Z,100243.00
2022-09-06T04:23:40.044Z,100254.13
2022-09-06T04:26:09.673Z,100264.00
2022-09-06T04:28:38.928Z,100242.94
2022-09-06T04:31:08.154Z,100250.38
2022-09-06T04:33:39.871Z,100245.66
2022-09-06T04:36:11.907Z,100220.06
2022-09-06T04:38:44.198Z,100235.84
2022-09-06T04:41:16.415Z,100227.84
2022-09-06T04:43:46.036Z,100229.88
2022-09-06T04:46:22.868Z,100214.66
2022-09-06T04:48:54.780Z,100227.06
2022-09-06T04:51:25.846Z,100234.31
2022-09-06T04:53:55.431Z,100228.28
2022-09-06T04:56:27.393Z,100221.03
2022-09-06T04:58:57.430Z,100238.53
2022-09-06T05:01:27.442Z,100236.94
2022-09-06T05:03:58.223Z,100253.22
2022-09-06T05:06:27.682Z,100254.03
2022-09-06T05:08:56.849Z,100252.06
2022-09-06T05:11:26.270Z,100251.34
2022-09-06T05:13:55.735Z,100206.75
2022-09-06T05:16:25.030Z,100249.88
2022-09-06T05:18:54.380Z,100234.31
2022-09-06T05:21:25.122Z,100246.50
2022-09-06T05:23:58.553Z,100244.78
2022-09-06T05:26:28.333Z,100251.31
2022-09-06T05:28:57.557Z,100227.94
2022-09-06T05:31:29.608Z,100245.53
2022-09-06T05:33:59.955Z,100225.56
2022-09-06T05:36:32.180Z,100251.47
2022-09-06T05:39:01.576Z,100251.53
2022-09-06T05:41:30.962Z,100208.72
2022-09-06T05:44:00.383Z,100239.81
2022-09-06T05:46:29.707Z,100220.50
2022-09-06T05:49:04.954Z,100251.59
2022-09-06T05:51:36.021Z,100227.78
2022-09-06T05:54:05.633Z,100252.44
2022-09-06T05:56:35.045Z,100251.34
2022-09-06T05:59:04.602Z,100257.25
2022-09-06T06:01:37.904Z,100251.59
2022-09-06T06:04:08.141Z,100257.25
2022-09-06T06:06:41.244Z,100253.19
2022-09-06T06:09:10.693Z,100214.84
2022-09-06T06:11:43.305Z,100266.47
2022-09-06T06:14:12.734Z,100255.03
2022-09-06T06:16:44.978Z,100192.31
2022-09-06T06:19:14.602Z,100248.66
2022-09-06T06:21:45.159Z,100255.16
2022-09-06T06:24:14.540Z,100240.19
2022-09-06T06:26:45.841Z,100211.06
2022-09-06T06:29:15.394Z,100237.81
2022-09-06T06:31:44.849Z,100255.44
2022-09-06T06:34:14.167Z,100240.03
2022-09-06T06:36:46.613Z,100251.22
2022-09-06T06:39:16.999Z,100249.13
2022-09-06T06:41:46.521Z,100251.50
2022-09-06T06:44:39.611Z,100249.66
2022-09-06T06:47:09.003Z,100252.44
2022-09-06T06:49:39.393Z,100261.16
2022-09-06T06:52:10.088Z,100236.91
2022-09-06T06:54:39.571Z,100243.72
2022-09-06T06:57:09.661Z,100256.59
2022-09-06T06:59:39.965Z,100247.13
2022-09-06T07:02:12.803Z,100249.94
2022-09-06T07:04:42.169Z,100234.25
2022-09-06T07:12:56.960Z,100225.41
2022-09-06T07:15:26.950Z,100257.09
2022-09-06T07:17:56.951Z,100249.44
2022-09-06T07:20:27.359Z,100231.50
2022-09-06T07:25:56.041Z,100231.84
2022-09-06T07:28:25.642Z,100184.88
2022-09-06T07:30:56.448Z,100230.03
2022-09-06T07:33:26.258Z,100233.13
2022-09-06T07:36:01.448Z,100232.00
2022-09-06T07:38:33.001Z,100220.94
2022-09-06T07:41:05.320Z,100224.50
2022-09-06T07:43:35.768Z,100240.00
2022-09-06T07:46:07.963Z,100240.09
2022-09-06T07:48:40.358Z,100237.84
2022-09-06T07:51:12.758Z,100229.53
2022-09-06T07:53:45.275Z,100239.03
2022-09-06T07:56:15.087Z,100230.75
2022-09-06T07:58:44.418Z,100241.16
2022-09-06T08:01:28.025Z,100234.84
2022-09-06T08:03:58.373Z,100223.81
2022-09-06T08:06:31.490Z,100221.88
2022-09-06T08:09:02.805Z,100202.38
2022-09-06T08:11:35.110Z,100213.19
2022-09-06T08:14:07.040Z,100222.75
2022-09-06T08:16:38.709Z,100220.81
2022-09-06T08:19:10.592Z,100223.28
2022-09-06T08:21:40.666Z,100210.50
2022-09-06T08:24:11.736Z,100197.75
2022-09-06T08:26:42.830Z,100222.09
2022-09-06T08:29:14.033Z,100216.13
2022-09-06T08:31:45.087Z,100198.63
2022-09-06T08:34:16.105Z,100225.06
2022-09-06T08:36:46.587Z,100199.69
2022-09-06T08:39:17.350Z,100213.25
2022-09-06T08:41:56.534Z,100198.09
2022-09-06T08:47:21.838Z,100213.41
2022-09-06T08:49:55.360Z,100214.03
2022-09-06T08:53:13.612Z,100218.53
2022-09-06T08:55:50.326Z,100209.91
2022-09-06T08:58:36.651Z,100207.09
2022-09-06T09:01:14.011Z,100195.97
2022-09-06T09:03:45.373Z,100200.75
2022-09-06T09:06:14.736Z,100198.78
2022-09-06T09:08:49.430Z,100202.78
2022-09-06T09:11:22.790Z,100202.41
2022-09-06T09:13:56.857Z,100203.63
2022-09-06T09:16:26.657Z,100205.63
2022-09-06T09:19:00.652Z,100197.31
2022-09-06T09:21:32.929Z,100200.53
2022-09-06T09:24:07.694Z,100218.00
2022-09-06T09:26:50.788Z,100214.03
2022-09-06T09:29:25.358Z,100218.41
2022-09-06T09:31:57.441Z,100208.38
2022-09-06T09:34:33.984Z,100233.00
2022-09-06T09:40:04.098Z,100230.44
2022-09-06T09:42:38.690Z,100233.94
2022-09-06T09:45:31.232Z,100219.91
2022-09-06T09:48:20.990Z,100233.53
2022-09-06T09:50:50.585Z,100239.03
2022-09-06T09:53:23.023Z,100227.38
2022-09-06T09:55:58.851Z,100229.03
2022-09-06T09:58:36.286Z,100220.25
2022-09-06T10:01:22.821Z,100229.25
2022-09-06T10:09:37.587Z,100235.63
2022-09-06T10:12:07.762Z,100229.28
2022-09-06T10:14:45.645Z,100226.53
2022-09-06T10:17:32.194Z,100220.56
2022-09-06T10:20:07.843Z,100222.13
2022-09-06T10:22:53.007Z,100206.56
2022-09-06T10:25:49.549Z,100210.56
2022-09-06T10:28:36.574Z,100218.84
2022-09-06T10:31:37.999Z,100210.03
2022-09-06T10:34:29.490Z,100213.53
2022-09-06T10:37:10.719Z,100207.44
2022-09-06T10:39:50.969Z,100203.72
2022-09-06T10:42:34.092Z,100183.69
2022-09-06T10:45:25.262Z,100176.09
2022-09-06T10:48:03.287Z,100182.38
2022-09-06T10:50:45.026Z,100172.66
2022-09-06T10:53:26.241Z,100194.84
2022-09-06T10:56:06.332Z,100185.56
2022-09-06T11:01:43.785Z,100179.84
2022-09-06T11:04:26.463Z,100181.91
2022-09-06T11:07:03.427Z,100165.06
2022-09-06T11:09:40.543Z,100165.63
2022-09-06T11:12:16.278Z,100152.81
2022-09-06T11:14:45.532Z,100174.19
2022-09-06T11:17:28.227Z,100152.63
2022-09-06T11:20:05.017Z,100163.72
2022-09-06T11:23:14.847Z,100166.81
2022-09-06T11:26:18.467Z,100161.56
2022-09-06T11:28:53.718Z,100161.16
2022-09-06T11:34:24.748Z,100156.66
2022-09-06T11:36:59.075Z,100157.81
2022-09-06T11:43:17.064Z,100150.72
2022-09-06T11:45:50.930Z,100136.00
2022-09-06T11:49:01.316Z,100146.50
2022-09-06T11:51:38.343Z,100144.16
2022-09-06T11:54:42.682Z,100163.78
2022-09-06T11:57:17.621Z,100143.94
2022-09-06T12:00:04.877Z,100123.91
2022-09-06T12:02:39.287Z,100137.38
2022-09-06T12:05:31.949Z,100148.34
2022-09-06T12:08:29.310Z,100142.47
2022-09-06T12:11:07.165Z,100132.81
2022-09-06T12:13:52.680Z,100139.09
2022-09-06T12:16:22.434Z,100160.50
2022-09-06T12:19:04.968Z,100163.34
2022-09-06T14:23:52.421Z,100033.25
2022-09-06T14:26:23.229Z,100030.00
2022-09-06T14:28:53.163Z,100020.84
2022-09-06T14:31:26.104Z,100016.50
2022-09-06T14:33:56.681Z,100014.09
2022-09-06T14:36:29.375Z,100010.53
2022-09-06T14:39:01.315Z,100012.56
2022-09-06T14:41:30.923Z,100015.81
2022-09-06T14:44:00.978Z,100000.03
2022-09-06T14:46:30.869Z,100006.47
2022-09-06T14:49:02.467Z,100012.91
2022-09-06T14:51:32.145Z,100014.56
2022-09-06T14:54:06.368Z,100000.28
2022-09-06T14:56:36.069Z,99997.13
2022-09-06T14:59:05.595Z,99994.78
2022-09-06T15:01:38.656Z,100009.00
2022-09-06T15:04:10.459Z,100001.84
2022-09-06T15:06:45.026Z,99999.47
2022-09-06T15:09:16.224Z,100007.34
2022-09-06T15:11:48.289Z,100000.25
2022-09-06T15:14:22.568Z,99989.53
2022-09-06T15:16:56.517Z,99974.47
2022-09-06T15:19:27.035Z,99993.13
2022-09-06T15:21:57.407Z,99976.88
2022-09-06T15:24:28.779Z,99992.38
2022-09-06T15:26:58.578Z,99990.78
2022-09-06T15:29:28.569Z,99981.19
2022-09-06T15:31:57.836Z,99984.44
2022-09-06T15:34:28.132Z,99981.25
2022-09-06T15:36:57.849Z,99983.56
2022-09-06T15:39:28.736Z,99980.44
2022-09-06T15:41:58.416Z,99979.63
2022-09-06T15:44:27.744Z,99978.00
2022-09-06T15:46:59.240Z,99984.34
2022-09-06T15:49:32.069Z,99988.25
2022-09-06T15:52:03.698Z,99971.56
2022-09-06T15:54:51.881Z,99983.06
2022-09-06T15:57:21.224Z,99979.91
2022-09-06T15:59:50.422Z,99980.69
2022-09-06T16:02:19.668Z,99980.69
2022-09-06T16:04:48.918Z,99979.09
2022-09-06T16:07:18.650Z,99976.31
2022-09-06T16:09:49.370Z,99981.06
2022-09-06T16:12:18.707Z,99988.22
2022-09-06T16:14:47.916Z,99981.91
2022-09-06T16:17:17.080Z,99972.81
2022-09-06T16:19:46.295Z,99973.25
2022-09-06T16:22:15.517Z,99974.81
2022-09-06T16:24:44.970Z,99972.88
2022-09-06T16:27:15.543Z,99981.19
2022-09-06T16:29:45.349Z,99972.88
2022-09-06T16:32:14.638Z,99970.91
2022-09-06T16:34:43.909Z,99968.09
2022-09-06T16:37:13.040Z,99966.91
2022-09-06T16:39:43.220Z,99958.50
2022-09-06T16:42:13.419Z,99950.09
2022-09-06T16:44:44.080Z,99961.19
2022-09-06T16:47:16.438Z,99946.06
2022-09-06T16:49:46.254Z,99946.47
2022-09-06T16:52:15.547Z,99956.38
2022-09-06T16:54:44.856Z,99952.34
2022-09-06T16:57:14.996Z,99945.28
2022-09-06T16:59:45.747Z,99951.53
2022-09-06T17:02:15.161Z,99949.97
2022-09-06T17:04:44.468Z,99955.06
2022-09-06T17:07:14.432Z,99951.47
2022-09-06T17:09:43.838Z,99943.50
2022-09-06T17:12:13.324Z,99938.28
2022-09-06T17:14:42.631Z,99937.91
2022-09-06T17:17:13.399Z,99940.28
2022-09-06T17:19:43.384Z,99940.66
2022-09-06T17:22:14.922Z,99947.78
2022-09-06T17:24:44.195Z,99949.75
2022-09-06T17:27:13.514Z,99912.00
2022-09-06T17:29:42.732Z,99949.31
2022-09-06T17:32:13.296Z,99939.78
2022-09-06T17:34:42.687Z,99928.28
2022-09-06T17:37:12.326Z,99916.69
2022-09-06T17:39:42.422Z,99934.47
2022-09-06T17:42:11.706Z,99942.38
2022-09-06T17:44:40.967Z,99938.03
2022-09-06T17:47:14.095Z,99942.78
2022-09-06T17:49:45.356Z,99940.78
2022-09-06T17:52:14.765Z,99945.13
2022-09-06T17:54:46.776Z,99963.72
2022-09-06T17:57:16.126Z,99951.44
2022-09-06T17:59:45.330Z,99950.19
2022-09-06T18:02:14.752Z,99950.94
2022-09-06T18:04:45.611Z,99943.63
2022-09-06T18:07:15.042Z,99929.25
2022-09-06T18:09:44.573Z,99964.16
2022-09-06T18:12:13.920Z,99934.66
2022-09-06T18:14:43.196Z,99960.81
2022-09-06T18:17:12.550Z,99958.00
2022-09-06T18:19:41.894Z,99959.94
2022-09-06T18:22:12.492Z,99947.22
2022-09-06T18:24:41.770Z,99936.06
2022-09-06T18:27:11.416Z,99941.59
2022-09-06T18:29:40.685Z,99952.28
2022-09-06T18:32:10.297Z,99935.50
2022-09-06T18:34:39.821Z,99958.09
2022-09-06T18:37:09.107Z,99913.09
2022-09-06T18:39:42.003Z,99954.91
2022-09-06T18:42:12.360Z,99946.13
2022-09-06T18:44:42.318Z,99957.63
2022-09-06T18:47:13.444Z,99942.91
2022-09-06T18:49:44.267Z,99955.59
2022-09-06T18:52:13.962Z,99967.06
2022-09-06T18:54:44.970Z,99967.47
2022-09-06T18:57:15.954Z,99963.59
2022-09-06T18:59:46.217Z,99961.22
2022-09-06T19:02:16.158Z,99965.22
2022-09-06T19:04:46.174Z,99952.06
2022-09-06T19:07:15.546Z,99958.81
2022-09-06T19:09:46.555Z,99971.53
2022-09-06T19:12:16.083Z,99975.53
2022-09-06T19:14:45.641Z,99948.88
2022-09-06T19:17:15.099Z,99964.00
2022-09-06T19:19:44.454Z,99975.94
2022-09-06T19:22:13.888Z,99975.19
2022-09-06T19:24:44.050Z,99943.31
2022-09-06T19:27:14.950Z,99977.94
2022-09-06T19:29:47.205Z,99956.81
2022-09-06T19:32:18.847Z,99969.53
2022-09-06T19:34:48.239Z,99976.78
2022-09-06T19:37:20.218Z,99969.50
2022-09-06T19:39:49.764Z,99980.63
2022-09-06T19:42:20.747Z,99974.75
2022-09-06T19:44:50.024Z,99982.97
2022-09-06T19:47:19.315Z,99979.81
2022-09-06T19:49:48.796Z,99954.78
2022-09-06T19:52:18.587Z,99973.41
2022-09-06T19:54:48.057Z,99987.31
2022-09-06T19:57:17.378Z,99984.56
2022-09-06T19:59:48.027Z,99985.75
2022-09-06T20:02:17.417Z,99979.41
2022-09-06T20:04:47.081Z,99982.56
2022-09-06T20:07:16.555Z,99972.69
2022-09-06T20:09:48.483Z,99977.78
2022-09-06T20:12:21.171Z,99971.41
2022-09-06T20:14:51.776Z,99946.59
2022-09-06T20:17:33.337Z,99963.28
2022-09-06T20:20:04.743Z,99952.03
2022-09-06T20:22:34.071Z,99962.75
2022-09-06T20:25:03.403Z,99970.25
2022-09-06T20:27:32.618Z,99963.06
2022-09-06T20:30:03.756Z,99956.25
2022-09-06T20:32:33.945Z,99962.13
2022-09-06T20:35:03.298Z,99952.56
2022-09-06T20:37:32.705Z,99958.06
2022-09-06T20:40:02.239Z,99955.28
2022-09-06T20:42:31.936Z,99957.94
2022-09-06T20:45:03.747Z,99906.59
2022-09-06T20:47:33.093Z,99953.94
2022-09-06T20:50:02.549Z,99957.09
2022-09-06T20:52:34.446Z,99957.09
2022-09-06T20:55:03.894Z,99968.91
2022-09-06T20:57:33.304Z,99960.09
2022-09-06T21:00:05.276Z,99962.50
2022-09-06T21:02:34.645Z,99969.59
2022-09-06T21:05:05.459Z,99940.13
2022-09-06T21:07:35.033Z,99967.19
2022-09-06T21:10:04.481Z,99954.53
2022-09-06T21:12:33.942Z,99954.53
2022-09-06T21:15:04.871Z,99945.34
2022-09-06T21:17:34.225Z,99945.34
2022-09-06T21:20:04.767Z,99949.69
2022-09-06T21:22:34.052Z,99949.69
2022-09-06T21:25:03.661Z,99952.88
2022-09-06T21:27:33.507Z,99950.09
2022-09-06T21:30:04.333Z,99952.03
2022-09-06T21:32:33.674Z,99945.63
2022-09-06T21:35:06.643Z,99943.53
2022-09-06T21:37:35.905Z,99943.53
2022-09-06T21:40:05.829Z,99938.00
2022-09-06T21:42:35.157Z,99939.91
2022-09-06T21:45:06.931Z,99892.00
2022-09-06T21:47:36.196Z,99937.47
2022-09-06T21:50:06.166Z,99937.03
2022-09-06T21:52:35.482Z,99938.19
2022-09-06T21:55:06.379Z,99929.88
2022-09-06T21:57:35.688Z,99928.69
2022-09-06T22:00:09.253Z,99915.69
2022-09-06T22:02:38.699Z,99920.00
2022-09-06T22:05:08.579Z,99923.31
2022-09-06T22:07:38.371Z,99918.53
2022-09-06T22:10:08.449Z,99874.78
2022-09-06T22:12:37.746Z,99913.91
2022-09-06T22:15:10.719Z,99911.59
2022-09-06T22:17:40.069Z,99910.03
2022-09-06T22:20:11.994Z,99896.66
2022-09-06T22:22:41.398Z,99891.91
2022-09-06T22:25:11.182Z,99904.63
2022-09-06T22:27:40.390Z,99911.75
2022-09-06T22:30:12.741Z,99911.75
2022-09-06T22:32:42.235Z,99895.19
2022-09-06T22:35:11.794Z,99892.72
2022-09-06T22:37:41.232Z,99899.16
2022-09-06T22:40:12.556Z,99889.72
2022-09-06T22:42:41.823Z,99882.56
2022-09-06T22:45:13.217Z,99893.38
2022-09-06T22:47:42.506Z,99889.09
2022-09-06T22:50:12.558Z,99887.50
2022-09-06T22:52:41.750Z,99855.72
2022-09-06T22:55:12.530Z,99873.25
2022-09-06T22:57:41.781Z,99878.47
2022-09-06T23:00:15.180Z,99859.00
2022-09-06T23:02:44.449Z,99865.41
2022-09-06T23:05:13.633Z,99866.63
2022-09-06T23:07:43.562Z,99870.22
2022-09-06T23:10:12.929Z,99859.09
2022-09-06T23:12:42.174Z,99861.13
2022-09-06T23:15:13.192Z,99857.59
2022-09-06T23:17:42.415Z,99853.19
2022-09-06T23:20:11.903Z,99860.34
2022-09-06T23:22:41.292Z,99846.50
2022-09-06T23:25:11.343Z,99856.06
2022-09-06T23:27:40.762Z,99863.16
2022-09-06T23:30:12.910Z,99822.16
2022-09-06T23:32:42.068Z,99847.25
2022-09-06T23:35:11.724Z,99856.47
2022-09-06T23:37:41.085Z,99850.16
2022-09-06T23:40:11.485Z,99840.19
2022-09-06T23:42:40.828Z,99852.97
2022-09-06T23:45:12.623Z,99840.41
2022-09-06T23:47:41.922Z,99839.50
2022-09-06T23:50:12.002Z,99846.31
2022-09-06T23:52:41.174Z,99834.91
2022-09-06T23:55:11.264Z,99825.41
2022-09-06T23:57:40.471Z,99821.56
